Time;durP1;ratioP1;P1;durP2;ratioP2;P2;SDS_P1;SDS_P2;PMS_P1;PMS_P2;Temp;Humidity;BMP_temperature;BMP_pressure;BME280_temperature;BME280_humidity;BME280_pressure;Samples;Min_cycle;Max_cycle;Signal;HPM_P1;HPM_P2
2023/04/06 00:00:46;;;;;;;6.07;4.20;;;7.60;51.70;;;;;;5068881;28;20168;-71
2023/04/06 00:03:13;;;;;;;7.90;4.47;;;7.50;51.70;;;;;;5064695;28;20515;-71
2023/04/06 00:05:40;;;;;;;5.85;4.00;;;7.50;51.80;;;;;;5062198;28;20060;-70
2023/04/06 00:08:09;;;;;;;7.72;4.25;;;7.50;51.70;;;;;;5059640;28;20103;-71
2023/04/06 00:10:36;;;;;;;6.60;4.15;;;7.50;51.80;;;;;;5065069;28;20076;-71
2023/04/06 00:13:03;;;;;;;7.50;4.50;;;7.50;52.00;;;;;;5064974;28;20572;-71
2023/04/06 00:15:30;;;;;;;7.30;4.23;;;7.50;52.00;;;;;;5061488;28;20100;-71
2023/04/06 00:17:57;;;;;;;7.78;4.22;;;7.40;52.30;;;;;;5061869;28;20127;-71
2023/04/06 00:20:24;;;;;;;6.88;4.20;;;7.40;52.40;;;;;;5068517;28;20037;-71
2023/04/06 00:22:51;;;;;;;7.20;4.05;;;7.40;52.50;;;;;;5067836;28;20114;-71
2023/04/06 00:25:20;;;;;;;7.15;4.25;;;7.30;52.50;;;;;;5060439;28;20060;-71
2023/04/06 00:27:47;;;;;;;6.53;4.00;;;7.30;52.60;;;;;;5061856;28;20053;-71
2023/04/06 00:30:14;;;;;;;7.68;4.13;;;7.20;52.80;;;;;;5068464;28;20053;-71
2023/04/06 00:32:41;;;;;;;7.05;3.97;;;7.20;52.90;;;;;;5052060;28;20063;-71
2023/04/06 00:35:08;;;;;;;6.72;4.30;;;7.20;53.00;;;;;;5052017;28;20049;-70
2023/04/06 00:37:35;;;;;;;7.75;3.97;;;7.20;53.20;;;;;;5043732;28;20503;-70
2023/04/06 00:40:03;;;;;;;6.73;3.87;;;7.20;53.30;;;;;;5043392;28;20059;-71
2023/04/06 00:42:31;;;;;;;7.45;4.10;;;7.10;53.40;;;;;;5069063;28;20604;-71
2023/04/06 00:44:59;;;;;;;7.13;4.28;;;7.00;53.50;;;;;;5046199;28;20045;-71
2023/04/06 00:47:27;;;;;;;7.03;4.40;;;7.00;53.50;;;;;;5034276;28;20048;-71
2023/04/06 00:49:54;;;;;;;7.88;4.03;;;7.00;53.50;;;;;;5058672;28;20049;-70
2023/04/06 00:52:21;;;;;;;8.27;4.17;;;7.00;53.60;;;;;;5063156;28;20227;-70
2023/04/06 00:54:50;;;;;;;7.22;4.07;;;6.90;53.70;;;;;;5034688;28;20049;-70
2023/04/06 00:57:18;;;;;;;5.88;3.80;;;6.90;53.90;;;;;;5050476;28;20740;-70
2023/04/06 00:59:49;;;;;;;8.18;4.30;;;6.90;54.00;;;;;;5060095;28;20057;-71
2023/04/06 01:02:16;;;;;;;7.18;3.90;;;6.80;54.20;;;;;;5065599;28;20565;-71
2023/04/06 01:04:48;;;;;;;6.07;3.73;;;6.80;54.30;;;;;;5061269;28;20060;-70
2023/04/06 01:07:24;;;;;;;6.32;3.70;;;6.80;54.40;;;;;;5050185;28;20051;-71
2023/04/06 01:10:07;;;;;;;7.03;4.30;;;6.80;54.40;;;;;;5047238;28;20131;-70
2023/04/06 01:12:37;;;;;;;6.38;3.90;;;6.70;54.50;;;;;;5036256;28;20486;-70
2023/04/06 01:15:11;;;;;;;7.22;4.72;;;6.70;54.50;;;;;;5044687;28;20668;-71
2023/04/06 01:17:42;;;;;;;6.83;4.27;;;6.70;54.50;;;;;;5040690;28;20056;-70
2023/04/06 01:20:14;;;;;;;6.50;4.30;;;6.60;54.70;;;;;;5042213;28;20603;-70
2023/04/06 01:22:42;;;;;;;7.78;4.68;;;6.60;54.70;;;;;;5043688;28;20244;-71
2023/04/06 01:25:11;;;;;;;6.22;4.20;;;6.60;54.70;;;;;;5060133;28;20091;-70
2023/04/06 01:27:53;;;;;;;8.73;4.40;;;6.50;54.70;;;;;;5040744;28;20196;-70
2023/04/06 01:30:24;;;;;;;7.63;4.37;;;6.50;54.80;;;;;;5036519;28;20122;-70
2023/04/06 01:32:54;;;;;;;6.25;4.25;;;6.50;54.90;;;;;;5068173;28;20056;-70
2023/04/06 01:35:44;;;;;;;7.82;4.40;;;6.40;54.90;;;;;;5065956;28;20053;-70
2023/04/06 01:38:17;;;;;;;7.15;4.30;;;6.40;55.00;;;;;;5051173;28;20048;-70
2023/04/06 01:40:45;;;;;;;6.18;4.10;;;6.40;55.10;;;;;;5050259;28;20507;-70
2023/04/06 01:43:13;;;;;;;7.33;4.07;;;6.30;55.10;;;;;;5054356;28;20057;-70
2023/04/06 01:45:55;;;;;;;6.85;4.30;;;6.30;55.10;;;;;;5056803;28;20056;-70
2023/04/06 01:48:24;;;;;;;9.63;4.38;;;6.30;55.20;;;;;;5050743;28;20049;-71
2023/04/06 01:50:51;;;;;;;7.55;4.05;;;6.20;55.30;;;;;;5050524;28;20049;-70
2023/04/06 01:53:25;;;;;;;6.50;4.07;;;6.20;55.40;;;;;;5050965;28;20065;-70
2023/04/06 01:55:57;;;;;;;7.37;4.47;;;6.20;55.50;;;;;;5064079;28;20077;-70
2023/04/06 01:58:31;;;;;;;6.80;4.38;;;6.10;55.50;;;;;;5035293;28;20045;-70
2023/04/06 02:00:59;;;;;;;7.55;4.43;;;6.00;55.50;;;;;;5047128;28;20053;-70
2023/04/06 02:03:30;;;;;;;8.48;4.10;;;6.00;55.70;;;;;;5038779;28;20140;-70
2023/04/06 02:06:06;;;;;;;7.05;4.47;;;5.90;55.70;;;;;;5059306;28;20515;-70
2023/04/06 02:08:40;;;;;;;8.43;4.30;;;5.90;55.90;;;;;;5050648;28;20041;-70
2023/04/06 02:11:07;;;;;;;7.18;4.07;;;5.80;55.90;;;;;;5050680;28;20503;-70
2023/04/06 02:13:41;;;;;;;6.95;4.78;;;5.80;55.80;;;;;;5061594;28;20049;-70
2023/04/06 02:16:09;;;;;;;7.47;4.28;;;5.80;55.60;;;;;;5054531;28;20049;-70
2023/04/06 02:18:36;;;;;;;8.38;4.35;;;5.80;55.80;;;;;;5055583;28;20077;-70
2023/04/06 02:21:03;;;;;;;8.37;4.60;;;5.70;56.00;;;;;;5055622;28;20115;-70
2023/04/06 02:23:30;;;;;;;6.93;4.20;;;5.70;56.10;;;;;;5059705;28;20688;-70
2023/04/06 02:25:59;;;;;;;7.80;4.30;;;5.70;56.20;;;;;;5055351;28;20119;-70
2023/04/06 02:28:26;;;;;;;7.40;4.40;;;5.70;56.00;;;;;;5067436;28;20111;-70
2023/04/06 02:30:54;;;;;;;6.85;4.55;;;5.60;56.00;;;;;;5066957;28;20507;-70
2023/04/06 02:33:25;;;;;;;7.37;4.20;;;5.60;56.00;;;;;;5067732;28;20061;-70
2023/04/06 02:35:52;;;;;;;7.65;4.43;;;5.60;55.90;;;;;;5066854;28;20045;-70
2023/04/06 02:38:19;;;;;;;8.38;4.70;;;5.60;55.90;;;;;;5041885;28;20041;-70
2023/04/06 02:40:46;;;;;;;8.70;4.55;;;5.60;55.90;;;;;;5050002;28;20072;-71
2023/04/06 02:43:24;;;;;;;7.43;4.40;;;5.60;55.80;;;;;;5067201;28;20112;-70
2023/04/06 02:45:56;;;;;;;7.87;4.70;;;5.50;55.90;;;;;;5050046;28;20715;-70
2023/04/06 02:48:25;;;;;;;8.52;4.55;;;5.50;56.10;;;;;;5066798;28;20049;-70
2023/04/06 02:50:53;;;;;;;7.70;5.20;;;5.50;56.20;;;;;;5049720;28;20106;-70
2023/04/06 02:53:20;;;;;;;7.70;4.47;;;5.50;56.30;;;;;;5050203;28;20493;-70
2023/04/06 02:55:49;;;;;;;7.78;4.90;;;5.50;56.40;;;;;;5049976;28;20623;-70
2023/04/06 02:58:16;;;;;;;7.70;4.57;;;5.50;56.40;;;;;;5045964;28;20136;-70
2023/04/06 03:00:49;;;;;;;10.05;4.30;;;5.50;56.30;;;;;;5035554;28;20051;-70
2023/04/06 03:03:16;;;;;;;8.90;4.47;;;5.40;56.30;;;;;;5043654;28;20052;-70
2023/04/06 03:05:44;;;;;;;11.25;5.32;;;5.40;56.20;;;;;;5066541;28;20048;-70
2023/04/06 03:08:12;;;;;;;16.80;4.93;;;5.40;56.20;;;;;;5059093;28;20140;-70
2023/04/06 03:10:44;;;;;;;10.00;4.67;;;5.40;56.30;;;;;;5049256;28;20072;-70
2023/04/06 03:13:12;;;;;;;10.07;4.63;;;5.30;56.30;;;;;;5036655;28;20053;-71
2023/04/06 03:15:56;;;;;;;10.68;6.07;;;5.30;56.40;;;;;;5034130;28;20056;-70
2023/04/06 03:18:24;;;;;;;10.30;4.97;;;5.30;56.40;;;;;;5068157;28;20052;-70
2023/04/06 03:20:54;;;;;;;8.07;4.80;;;5.30;56.40;;;;;;5049715;28;20049;-70
2023/04/06 03:23:23;;;;;;;9.23;4.73;;;5.30;56.50;;;;;;5049558;28;20055;-70
2023/04/06 03:25:55;;;;;;;7.10;4.35;;;5.30;56.60;;;;;;5049532;28;20056;-70
2023/04/06 03:28:22;;;;;;;10.15;4.70;;;5.30;56.70;;;;;;5049591;28;20052;-70
2023/04/06 03:30:53;;;;;;;8.68;4.68;;;5.20;56.70;;;;;;5040657;28;20096;-70
2023/04/06 03:33:38;;;;;;;7.45;4.70;;;5.20;56.70;;;;;;5066557;28;20060;-70
2023/04/06 03:36:07;;;;;;;7.33;4.30;;;5.10;56.70;;;;;;5066232;28;20052;-70
2023/04/06 03:38:39;;;;;;;8.95;4.90;;;5.10;56.60;;;;;;5049539;28;20076;-70
2023/04/06 03:41:11;;;;;;;8.40;4.70;;;5.10;56.80;;;;;;5049014;28;20049;-70
2023/04/06 03:43:40;;;;;;;6.88;4.40;;;5.10;56.80;;;;;;5041108;28;20665;-70
2023/04/06 03:46:07;;;;;;;8.90;4.75;;;5.10;56.80;;;;;;5066060;28;20196;-70
2023/04/06 03:48:34;;;;;;;10.07;5.23;;;5.10;56.90;;;;;;5066349;28;20049;-70
2023/04/06 03:51:06;;;;;;;6.68;4.55;;;5.00;57.00;;;;;;5048774;28;20103;-70
2023/04/06 03:53:33;;;;;;;8.18;4.90;;;5.00;57.10;;;;;;5049334;28;20045;-70
2023/04/06 03:56:00;;;;;;;9.55;4.95;;;5.00;57.00;;;;;;5065923;28;20049;-70
2023/04/06 03:58:28;;;;;;;8.02;4.88;;;5.00;57.10;;;;;;5049351;28;20477;-70
2023/04/06 04:00:55;;;;;;;9.90;4.57;;;5.00;57.10;;;;;;5048805;28;20533;-70
2023/04/06 04:03:23;;;;;;;9.30;4.95;;;5.00;57.10;;;;;;5065571;28;20814;-70
2023/04/06 04:05:50;;;;;;;10.18;4.82;;;5.00;57.00;;;;;;5048834;28;20049;-70
2023/04/06 04:08:19;;;;;;;9.65;4.68;;;5.00;57.00;;;;;;5048774;28;20075;-70
2023/04/06 04:10:46;;;;;;;9.90;5.32;;;5.00;56.90;;;;;;5065256;28;20532;-70
2023/04/06 04:13:13;;;;;;;9.33;4.70;;;4.90;56.90;;;;;;5047668;28;20621;-70
2023/04/06 04:15:47;;;;;;;10.07;5.28;;;4.90;56.80;;;;;;5039540;28;20069;-70
2023/04/06 04:18:16;;;;;;;9.57;5.20;;;4.90;56.70;;;;;;5059227;28;20053;-70
2023/04/06 04:20:43;;;;;;;9.88;5.20;;;4.90;56.80;;;;;;5040352;28;20100;-70
2023/04/06 04:23:12;;;;;;;8.60;5.10;;;4.90;56.80;;;;;;5048340;28;20095;-70
2023/04/06 04:25:40;;;;;;;8.60;5.47;;;4.90;56.80;;;;;;5040737;28;20049;-70
2023/04/06 04:28:07;;;;;;;11.02;5.00;;;4.80;56.60;;;;;;5068218;28;20056;-70
2023/04/06 04:30:35;;;;;;;8.55;5.03;;;4.80;56.60;;;;;;5051819;28;20044;-70
2023/04/06 04:33:08;;;;;;;9.02;5.40;;;4.70;56.50;;;;;;5052074;28;20119;-70
2023/04/06 04:35:35;;;;;;;12.57;5.13;;;4.70;56.60;;;;;;5068878;28;20243;-70
2023/04/06 04:38:02;;;;;;;10.40;5.17;;;4.70;56.60;;;;;;5068442;28;20052;-70
2023/04/06 04:40:29;;;;;;;9.10;5.15;;;4.70;56.60;;;;;;5068621;28;20045;-70
2023/04/06 04:43:06;;;;;;;8.93;5.30;;;4.70;56.60;;;;;;5044634;28;20072;-70
2023/04/06 04:45:35;;;;;;;9.85;5.30;;;4.70;56.60;;;;;;5032017;28;20057;-70
2023/04/06 04:48:12;;;;;;;8.68;5.20;;;4.70;56.70;;;;;;5049186;28;20534;-69
2023/04/06 04:50:50;;;;;;;8.83;5.50;;;4.70;56.70;;;;;;5048339;28;20055;-70
2023/04/06 04:53:19;;;;;;;7.57;4.85;;;4.70;56.70;;;;;;5047180;28;20060;-70
2023/04/06 04:55:46;;;;;;;8.63;5.30;;;4.70;56.70;;;;;;5045798;28;20600;-70
2023/04/06 04:58:18;;;;;;;10.23;5.10;;;4.60;56.70;;;;;;5079145;28;20049;-70
2023/04/06 05:00:51;;;;;;;10.00;6.10;;;4.60;56.70;;;;;;5048061;28;20128;-72
2023/04/06 05:03:21;;;;;;;9.03;5.27;;;4.60;56.70;;;;;;5065521;28;20077;-70
2023/04/06 05:05:56;;;;;;;8.82;5.18;;;4.60;56.70;;;;;;5058329;28;20060;-71
2023/04/06 05:08:27;;;;;;;10.32;5.30;;;4.50;56.80;;;;;;5040811;28;20171;-70
2023/04/06 05:10:54;;;;;;;9.25;5.68;;;4.60;56.90;;;;;;5047010;28;20110;-70
2023/04/06 05:13:23;;;;;;;9.07;5.38;;;4.60;56.90;;;;;;5055303;28;20056;-70
2023/04/06 05:15:52;;;;;;;10.20;5.67;;;4.50;56.80;;;;;;5048861;28;20041;-70
2023/04/06 05:18:32;;;;;;;9.40;5.80;;;4.50;56.80;;;;;;5051175;28;20045;-70
2023/04/06 05:21:01;;;;;;;10.55;5.53;;;4.50;57.00;;;;;;5067553;28;20135;-70
2023/04/06 05:23:37;;;;;;;10.20;5.40;;;4.50;56.90;;;;;;5050652;28;20499;-70
2023/04/06 05:26:05;;;;;;;10.85;5.68;;;4.50;56.90;;;;;;5067364;28;20045;-70
2023/04/06 05:28:35;;;;;;;10.77;5.87;;;4.50;57.00;;;;;;5047649;28;20041;-70
2023/04/06 05:31:04;;;;;;;11.85;5.80;;;4.40;57.00;;;;;;5064949;28;20060;-70
2023/04/06 05:33:39;;;;;;;9.93;5.80;;;4.40;57.10;;;;;;5047150;28;20056;-69
2023/04/06 05:36:11;;;;;;;10.27;5.65;;;4.40;57.20;;;;;;5046644;28;20049;-70
2023/04/06 05:38:42;;;;;;;11.40;5.90;;;4.40;57.30;;;;;;5048880;28;20115;-70
2023/04/06 05:41:20;;;;;;;10.63;5.73;;;4.40;57.20;;;;;;5069950;28;20110;-70
2023/04/06 05:43:48;;;;;;;11.10;5.93;;;4.40;57.30;;;;;;5050234;28;20060;-70
2023/04/06 05:46:41;;;;;;;9.77;6.32;;;4.40;57.50;;;;;;5068406;28;20055;-70
2023/04/06 05:49:13;;;;;;;11.30;6.03;;;4.40;57.50;;;;;;5048435;28;20061;-69
2023/04/06 05:51:40;;;;;;;12.45;5.70;;;4.40;57.60;;;;;;5062682;28;20061;-70
2023/04/06 05:54:08;;;;;;;12.37;6.10;;;4.40;57.70;;;;;;5067632;28;20057;-70
2023/04/06 05:56:35;;;;;;;11.32;5.97;;;4.40;57.70;;;;;;5063442;28;20056;-69
2023/04/06 05:59:05;;;;;;;9.32;5.72;;;4.40;57.70;;;;;;5065789;28;20045;-69
2023/04/06 06:01:33;;;;;;;10.63;5.50;;;4.40;57.80;;;;;;5058920;28;20049;-71
2023/04/06 06:04:01;;;;;;;11.60;6.07;;;4.30;57.90;;;;;;5054857;28;20049;-70
2023/04/06 06:06:30;;;;;;;11.17;6.10;;;4.30;58.00;;;;;;5062894;28;20071;-70
2023/04/06 06:09:13;;;;;;;13.48;6.28;;;4.30;58.10;;;;;;5042403;28;20041;-70
2023/04/06 06:11:46;;;;;;;9.18;5.65;;;4.30;58.40;;;;;;5055773;28;20099;-70
2023/04/06 06:14:17;;;;;;;21.50;6.65;;;4.30;58.40;;;;;;5053005;28;20081;-70
2023/04/06 06:16:45;;;;;;;11.90;6.18;;;4.30;58.50;;;;;;5045103;28;20049;-70
2023/04/06 06:19:14;;;;;;;10.73;6.00;;;4.30;58.80;;;;;;5039099;28;20048;-71
2023/04/06 06:21:42;;;;;;;10.13;5.78;;;4.20;58.80;;;;;;5044076;28;20132;-71
2023/04/06 06:24:09;;;;;;;10.75;6.32;;;4.20;59.00;;;;;;5062387;28;20104;-70
2023/04/06 06:26:37;;;;;;;11.23;5.93;;;4.20;59.20;;;;;;5047147;28;20073;-70
2023/04/06 06:29:05;;;;;;;9.77;5.82;;;4.20;59.20;;;;;;5046402;28;20394;-70
2023/04/06 06:31:35;;;;;;;10.63;6.13;;;4.20;59.40;;;;;;5049306;28;20122;-70
2023/04/06 06:34:02;;;;;;;9.93;6.07;;;4.30;59.60;;;;;;5060479;28;20053;-69
2023/04/06 06:36:32;;;;;;;12.23;6.30;;;4.30;59.70;;;;;;5042991;28;20049;-70
2023/04/06 06:39:00;;;;;;;10.07;5.88;;;4.30;59.70;;;;;;5042610;28;20038;-70
2023/04/06 06:41:28;;;;;;;11.57;6.90;;;4.30;59.80;;;;;;5046480;28;20057;-70
2023/04/06 06:43:55;;;;;;;11.80;6.73;;;4.40;60.10;;;;;;5063030;28;20155;-70
2023/04/06 06:46:23;;;;;;;13.07;6.45;;;4.40;60.10;;;;;;5044544;28;20045;-70
2023/04/06 06:48:52;;;;;;;11.52;6.10;;;4.40;60.10;;;;;;5061516;28;20057;-70
2023/04/06 06:51:19;;;;;;;11.80;6.72;;;4.40;60.50;;;;;;5041757;28;20049;-70
2023/04/06 06:53:46;;;;;;;11.57;6.70;;;4.40;60.60;;;;;;5051518;28;20144;-70
2023/04/06 06:56:13;;;;;;;11.63;6.53;;;4.40;60.50;;;;;;5065976;28;20877;-70
2023/04/06 06:58:41;;;;;;;10.65;6.68;;;4.40;60.80;;;;;;5065384;28;20060;-70
2023/04/06 07:01:08;;;;;;;13.93;7.40;;;4.40;60.90;;;;;;5034242;28;20652;-70
2023/04/06 07:03:36;;;;;;;11.15;6.63;;;4.40;61.10;;;;;;5039648;28;20539;-70
2023/04/06 07:06:04;;;;;;;11.98;6.57;;;4.50;61.50;;;;;;5046211;28;20054;-70
2023/04/06 07:08:31;;;;;;;11.47;6.10;;;4.50;61.80;;;;;;5058749;28;20485;-70
2023/04/06 07:10:59;;;;;;;11.75;6.50;;;4.50;61.80;;;;;;5063429;28;20057;-70
2023/04/06 07:13:27;;;;;;;13.85;6.63;;;4.50;62.20;;;;;;5057199;28;20060;-70
2023/04/06 07:15:57;;;;;;;13.73;6.00;;;4.50;62.40;;;;;;5043074;28;20052;-70
2023/04/06 07:18:24;;;;;;;11.82;6.50;;;4.60;62.80;;;;;;5060901;28;20092;-70
2023/04/06 07:20:51;;;;;;;11.57;6.53;;;4.60;62.60;;;;;;5066235;28;20049;-70
2023/04/06 07:23:20;;;;;;;12.95;6.97;;;4.70;62.90;;;;;;5039063;28;20068;-70
2023/04/06 07:25:50;;;;;;;12.00;7.25;;;4.70;63.20;;;;;;5064698;28;20057;-70
2023/04/06 07:28:17;;;;;;;11.30;6.38;;;4.70;63.30;;;;;;5067944;28;20045;-70
2023/04/06 07:30:45;;;;;;;14.27;7.15;;;4.80;63.60;;;;;;5065918;28;20095;-70
2023/04/06 07:33:13;;;;;;;12.70;7.00;;;4.80;63.70;;;;;;5062968;28;20076;-70
2023/04/06 07:35:42;;;;;;;11.95;6.68;;;4.90;63.90;;;;;;5040879;28;20573;-70
2023/04/06 07:38:10;;;;;;;11.55;6.82;;;4.90;63.90;;;;;;5058685;28;20060;-70
2023/04/06 07:40:39;;;;;;;14.23;6.93;;;5.00;63.50;;;;;;5047198;28;20041;-70
2023/04/06 07:43:07;;;;;;;11.80;7.13;;;5.00;63.30;;;;;;5061602;28;20053;-70
2023/04/06 07:45:34;;;;;;;14.60;6.77;;;5.00;63.30;;;;;;5066211;28;20041;-70
2023/04/06 07:48:02;;;;;;;14.65;6.47;;;5.10;63.20;;;;;;5034503;28;20586;-70
2023/04/06 07:50:31;;;;;;;14.10;6.82;;;5.20;62.90;;;;;;5029583;28;20076;-70
2023/04/06 07:52:58;;;;;;;12.35;6.90;;;5.30;63.00;;;;;;5054029;28;20152;-70
2023/04/06 07:55:25;;;;;;;12.93;7.05;;;5.30;62.90;;;;;;5065351;28;20158;-70
2023/04/06 07:57:54;;;;;;;13.73;7.27;;;5.30;62.70;;;;;;5063853;28;20057;-70
2023/04/06 08:00:22;;;;;;;14.75;7.07;;;5.50;62.50;;;;;;5063075;28;20048;-70
2023/04/06 08:02:49;;;;;;;12.88;7.30;;;5.50;62.00;;;;;;5055370;28;20053;-70
2023/04/06 08:05:17;;;;;;;14.18;6.75;;;5.60;62.10;;;;;;5065291;28;20502;-70
2023/04/06 08:07:44;;;;;;;14.50;7.38;;;5.60;62.30;;;;;;5064692;28;20851;-70
2023/04/06 08:10:11;;;;;;;12.47;7.30;;;5.70;62.60;;;;;;5067615;28;20049;-70
2023/04/06 08:12:39;;;;;;;13.70;7.75;;;5.70;62.80;;;;;;5058578;28;20894;-71
2023/04/06 08:15:08;;;;;;;16.80;7.75;;;5.80;62.60;;;;;;5063831;28;20604;-71
2023/04/06 08:17:35;;;;;;;12.95;7.43;;;5.90;62.80;;;;;;5060298;28;20049;-70
2023/04/06 08:20:04;;;;;;;12.50;7.03;;;6.00;62.70;;;;;;5068256;28;20049;-70
2023/04/06 08:22:31;;;;;;;14.67;6.67;;;6.10;62.50;;;;;;5064869;28;20496;-70
2023/04/06 08:24:58;;;;;;;14.93;7.88;;;6.20;62.80;;;;;;5064694;28;20134;-70
2023/04/06 08:27:25;;;;;;;12.80;7.53;;;6.30;62.60;;;;;;5068860;28;20041;-70
2023/04/06 08:29:53;;;;;;;13.48;7.35;;;6.40;62.20;;;;;;5068275;28;20072;-70
2023/04/06 08:32:21;;;;;;;13.70;7.78;;;6.50;62.20;;;;;;5070272;28;20056;-70
2023/04/06 08:34:48;;;;;;;13.93;7.47;;;6.60;62.00;;;;;;5063631;28;20056;-70
2023/04/06 08:37:16;;;;;;;14.98;7.60;;;6.70;61.60;;;;;;5064117;28;20053;-71
2023/04/06 08:39:43;;;;;;;13.15;7.55;;;6.80;61.40;;;;;;5057423;28;20061;-70
2023/04/06 08:42:17;;;;;;;13.32;7.47;;;6.90;61.00;;;;;;5059219;28;20053;-70
2023/04/06 08:44:45;;;;;;;13.98;7.90;;;7.00;60.90;;;;;;5066838;28;20122;-70
2023/04/06 08:47:13;;;;;;;12.83;6.20;;;7.20;60.50;;;;;;5065250;28;20051;-70
2023/04/06 08:49:43;;;;;;;12.75;7.10;;;7.30;59.80;;;;;;5057847;28;20049;-70
2023/04/06 08:52:11;;;;;;;14.02;7.07;;;7.40;59.60;;;;;;5068916;28;20502;-70
2023/04/06 08:54:39;;;;;;;13.57;7.60;;;7.50;59.60;;;;;;5062503;28;20049;-70
2023/04/06 08:57:06;;;;;;;16.83;7.55;;;7.60;59.10;;;;;;5060748;28;20466;-70
2023/04/06 08:59:34;;;;;;;13.43;7.53;;;7.60;58.50;;;;;;5064193;28;20352;-70
2023/04/06 09:02:05;;;;;;;14.30;7.78;;;7.80;58.50;;;;;;5063937;28;20064;-70
2023/04/06 09:04:33;;;;;;;13.25;7.60;;;7.80;58.20;;;;;;5066354;28;20053;-70
2023/04/06 09:07:02;;;;;;;17.65;8.60;;;7.90;58.20;;;;;;5060651;28;20057;-71
2023/04/06 09:09:29;;;;;;;12.43;7.80;;;8.00;58.20;;;;;;5064234;28;20053;-71
2023/04/06 09:12:01;;;;;;;13.40;6.87;;;8.10;57.70;;;;;;5065476;28;20130;-71
2023/04/06 09:14:37;;;;;;;15.10;7.78;;;8.10;56.70;;;;;;5067983;28;20049;-71
2023/04/06 09:17:05;;;;;;;15.23;8.80;;;8.20;57.20;;;;;;5069238;28;20052;-71
2023/04/06 09:19:32;;;;;;;15.32;8.02;;;8.30;57.20;;;;;;5064878;28;20056;-71
2023/04/06 09:22:06;;;;;;;16.10;8.75;;;8.30;57.10;;;;;;5063295;28;20052;-71
2023/04/06 09:24:44;;;;;;;16.30;8.17;;;8.40;56.40;;;;;;5064541;28;20127;-71
2023/04/06 09:27:12;;;;;;;15.57;8.18;;;8.50;56.60;;;;;;5066551;28;20741;-70
2023/04/06 09:29:39;;;;;;;17.13;8.57;;;8.50;56.50;;;;;;5072877;28;20115;-70
2023/04/06 09:32:10;;;;;;;16.27;8.95;;;8.60;56.80;;;;;;5068733;28;20581;-70
2023/04/06 09:34:38;;;;;;;16.42;8.45;;;8.60;56.60;;;;;;5066648;28;20052;-71
2023/04/06 09:37:15;;;;;;;18.93;9.13;;;8.60;56.50;;;;;;5066655;28;20049;-71
2023/04/06 09:39:42;;;;;;;17.08;8.63;;;8.70;56.60;;;;;;5066958;28;20049;-71
2023/04/06 09:42:09;;;;;;;19.63;9.75;;;8.80;56.70;;;;;;5063176;28;20057;-71
2023/04/06 09:44:37;;;;;;;15.55;8.75;;;8.90;55.90;;;;;;5065422;28;20533;-71
2023/04/06 09:47:08;;;;;;;15.95;9.18;;;8.90;55.80;;;;;;5066569;28;20052;-71
2023/04/06 09:49:36;;;;;;;16.30;9.43;;;9.00;54.80;;;;;;5066590;28;20051;-71
2023/04/06 09:52:04;;;;;;;15.85;9.55;;;9.00;55.30;;;;;;5067995;28;20131;-71
2023/04/06 09:54:33;;;;;;;17.23;9.00;;;9.00;55.70;;;;;;5063265;28;20059;-71
2023/04/06 09:57:08;;;;;;;15.80;9.07;;;9.20;55.70;;;;;;5063132;28;20507;-71
2023/04/06 09:59:44;;;;;;;19.48;10.30;;;9.20;54.90;;;;;;5068650;28;20980;-71
2023/04/06 10:02:21;;;;;;;19.03;9.40;;;9.30;54.80;;;;;;5067852;28;20589;-71
2023/04/06 10:04:56;;;;;;;20.15;9.35;;;9.40;54.20;;;;;;5068700;28;20986;-71
2023/04/06 10:07:24;;;;;;;19.83;9.52;;;9.40;54.40;;;;;;5061752;28;20061;-71
2023/04/06 10:09:55;;;;;;;16.85;8.68;;;9.50;53.70;;;;;;5061910;28;20537;-71
2023/04/06 10:12:23;;;;;;;22.42;9.60;;;9.60;53.60;;;;;;5060797;28;20057;-71
2023/04/06 10:14:51;;;;;;;18.93;10.27;;;9.70;54.00;;;;;;5063012;28;20053;-71
2023/04/06 10:17:18;;;;;;;20.50;10.30;;;9.80;53.50;;;;;;5064330;28;20099;-71
2023/04/06 10:19:51;;;;;;;19.90;10.38;;;9.90;53.50;;;;;;5064707;28;20060;-71
2023/04/06 10:22:27;;;;;;;19.42;10.45;;;10.00;53.10;;;;;;5061809;28;20411;-71
2023/04/06 10:24:55;;;;;;;17.98;10.68;;;10.10;52.10;;;;;;5060086;28;20049;-71
2023/04/06 10:27:30;;;;;;;19.17;10.90;;;10.20;52.60;;;;;;5048666;28;20212;-71
2023/04/06 10:30:02;;;;;;;18.52;9.95;;;10.20;52.80;;;;;;5066540;28;20049;-71
2023/04/06 10:32:35;;;;;;;22.50;11.23;;;10.30;51.80;;;;;;5064877;28;20509;-71
2023/04/06 10:35:10;;;;;;;21.25;9.85;;;10.40;51.70;;;;;;5062231;28;20045;-71
2023/04/06 10:37:49;;;;;;;19.02;9.27;;;10.50;51.50;;;;;;5064983;28;20582;-71
2023/04/06 10:40:22;;;;;;;20.13;11.30;;;10.70;50.80;;;;;;5057464;28;20115;-71
2023/04/06 10:42:50;;;;;;;22.27;11.35;;;10.80;50.00;;;;;;5031151;28;20794;-71
2023/04/06 10:45:22;;;;;;;20.42;11.25;;;10.90;49.50;;;;;;5048829;28;20513;-71
2023/04/06 10:47:49;;;;;;;22.88;12.30;;;10.90;50.10;;;;;;5055825;28;20057;-71
2023/04/06 10:50:17;;;;;;;21.10;12.15;;;11.00;50.10;;;;;;5064275;28;20049;-71
2023/04/06 10:52:46;;;;;;;21.17;11.77;;;11.00;50.00;;;;;;5062497;28;20129;-71
2023/04/06 10:55:15;;;;;;;21.95;11.73;;;11.00;50.00;;;;;;5060553;28;20048;-71
2023/04/06 10:57:43;;;;;;;24.13;12.68;;;11.00;49.90;;;;;;5057575;28;20588;-71
2023/04/06 11:00:13;;;;;;;25.08;12.00;;;11.10;49.70;;;;;;5058745;28;20065;-71
2023/04/06 11:02:44;;;;;;;31.58;12.70;;;11.10;49.70;;;;;;5061440;28;20048;-71
2023/04/06 11:05:13;;;;;;;34.83;14.13;;;11.10;49.80;;;;;;5064114;28;20048;-71
2023/04/06 11:07:40;;;;;;;27.45;13.13;;;11.10;49.30;;;;;;5057657;28;20058;-71
2023/04/06 11:10:08;;;;;;;21.80;10.93;;;11.20;48.30;;;;;;5060287;28;20585;-71
2023/04/06 11:12:35;;;;;;;24.10;13.43;;;11.20;48.20;;;;;;5046993;28;20336;-71
2023/04/06 11:15:05;;;;;;;27.50;14.77;;;11.20;47.90;;;;;;5066193;28;20164;-71
2023/04/06 11:17:35;;;;;;;23.93;12.40;;;11.20;47.90;;;;;;5065577;28;20052;-71
2023/04/06 11:20:04;;;;;;;28.80;14.88;;;11.20;47.70;;;;;;5065907;28;20820;-71
2023/04/06 11:22:32;;;;;;;27.92;14.65;;;11.20;47.40;;;;;;5058555;28;20123;-71
2023/04/06 11:25:06;;;;;;;29.20;16.17;;;11.30;46.50;;;;;;5061451;28;20122;-71
2023/04/06 11:27:34;;;;;;;24.45;13.15;;;11.30;46.90;;;;;;5060327;28;20053;-71
2023/04/06 11:30:02;;;;;;;26.73;14.17;;;11.30;46.30;;;;;;5065619;28;20045;-70
2023/04/06 11:32:40;;;;;;;25.55;14.07;;;11.30;46.80;;;;;;5064239;28;20049;-71
2023/04/06 11:35:08;;;;;;;28.45;14.18;;;11.30;47.30;;;;;;5058671;28;20054;-71
2023/04/06 11:37:35;;;;;;;28.00;13.82;;;11.30;46.70;;;;;;5055693;28;20049;-71
2023/04/06 11:40:03;;;;;;;26.48;13.57;;;11.30;47.10;;;;;;5061311;28;20522;-71
2023/04/06 11:42:31;;;;;;;28.33;12.33;;;11.30;45.70;;;;;;5062458;28;20053;-71
2023/04/06 11:44:59;;;;;;;26.98;13.95;;;11.40;45.60;;;;;;5065420;28;20100;-71
2023/04/06 11:47:32;;;;;;;25.98;14.27;;;11.40;45.30;;;;;;5066040;28;20053;-71
2023/04/06 11:50:07;;;;;;;30.92;14.05;;;11.40;44.80;;;;;;5059720;28;20785;-71
2023/04/06 11:52:35;;;;;;;32.25;13.15;;;11.40;45.50;;;;;;5065470;28;20052;-71
2023/04/06 11:55:12;;;;;;;29.87;14.30;;;11.50;44.70;;;;;;5062879;28;20048;-70
2023/04/06 11:57:40;;;;;;;27.02;13.52;;;11.40;45.10;;;;;;5058761;28;20539;-71
2023/04/06 12:00:09;;;;;;;31.10;13.30;;;11.40;45.70;;;;;;5057982;28;20099;-71
2023/04/06 12:02:38;;;;;;;26.10;12.82;;;11.40;45.20;;;;;;5057132;28;20049;-71
2023/04/06 12:05:06;;;;;;;24.20;12.57;;;11.50;45.50;;;;;;5065847;28;20103;-71
2023/04/06 12:07:34;;;;;;;51.90;14.17;;;11.50;45.40;;;;;;5065716;28;20159;-71
2023/04/06 12:10:03;;;;;;;27.13;13.95;;;11.50;45.40;;;;;;5062462;28;20049;-70
2023/04/06 12:12:31;;;;;;;20.95;11.98;;;11.50;45.10;;;;;;5066478;28;20049;-71
2023/04/06 12:14:59;;;;;;;25.50;13.00;;;11.60;45.00;;;;;;5059886;28;20104;-71
2023/04/06 12:17:26;;;;;;;24.92;12.30;;;11.70;45.30;;;;;;5059961;28;20045;-71
2023/04/06 12:19:55;;;;;;;26.70;13.60;;;11.70;45.30;;;;;;5058304;28;20079;-71
2023/04/06 12:22:22;;;;;;;26.33;12.95;;;11.70;45.70;;;;;;5062896;28;20056;-71
2023/04/06 12:24:50;;;;;;;26.67;14.13;;;11.80;45.50;;;;;;5066530;28;20052;-71
2023/04/06 12:27:17;;;;;;;28.10;13.82;;;11.90;45.00;;;;;;5065798;28;20052;-71
2023/04/06 12:29:44;;;;;;;27.67;13.32;;;12.00;44.70;;;;;;5057669;28;20153;-71
2023/04/06 12:32:11;;;;;;;25.53;13.63;;;12.00;45.10;;;;;;5066054;28;20059;-71
2023/04/06 12:34:39;;;;;;;26.90;13.02;;;12.10;44.80;;;;;;5061403;28;20045;-71
2023/04/06 12:37:07;;;;;;;26.95;12.63;;;12.20;44.40;;;;;;5058954;28;20053;-71
2023/04/06 12:39:35;;;;;;;24.38;12.90;;;12.20;44.20;;;;;;5056586;28;20072;-71
2023/04/06 12:42:03;;;;;;;31.65;14.45;;;12.20;44.60;;;;;;5052331;28;20110;-71
2023/04/06 12:44:30;;;;;;;26.27;13.93;;;12.30;44.40;;;;;;5048979;28;20127;-71
2023/04/06 12:46:57;;;;;;;27.23;13.45;;;12.30;44.40;;;;;;5061791;28;20049;-71
2023/04/06 12:49:25;;;;;;;22.40;12.00;;;12.30;44.70;;;;;;5067885;28;20080;-71
2023/04/06 12:51:52;;;;;;;23.00;12.00;;;12.30;44.60;;;;;;5058702;28;20064;-71
2023/04/06 12:54:21;;;;;;;24.63;12.75;;;12.30;45.00;;;;;;5051000;28;20451;-71
2023/04/06 12:56:48;;;;;;;20.70;10.40;;;12.30;44.90;;;;;;5070370;28;20053;-71